Time;durP1;ratioP1;P1;durP2;ratioP2;P2;SDS_P1;SDS_P2;PMS_P1;PMS_P2;Temp;Humidity;BMP_temperature;BMP_pressure;BME280_temperature;BME280_humidity;BME280_pressure;Samples;Min_cycle;Max_cycle;Signal;HPM_P1;HPM_P2
2022/09/24 00:00:06;;;;;;;7.53;4.42;;;13.70;91.10;;;;;;1906156;74;21031;-57
2022/09/24 00:02:36;;;;;;;5.03;4.30;;;13.70;91.20;;;;;;1906102;75;21089;-56
2022/09/24 00:05:05;;;;;;;4.97;4.12;;;13.80;91.20;;;;;;1906149;75;21110;-57
2022/09/24 00:07:35;;;;;;;5.97;4.47;;;13.80;91.20;;;;;;1906189;75;21007;-57
2022/09/24 00:10:04;;;;;;;5.10;4.60;;;13.80;91.20;;;;;;1906267;75;21044;-57
2022/09/24 00:12:34;;;;;;;6.03;4.67;;;13.90;91.30;;;;;;1906302;75;21031;-57
2022/09/24 00:15:03;;;;;;;5.25;4.37;;;13.90;91.40;;;;;;1906269;75;21095;-57
2022/09/24 00:17:33;;;;;;;6.33;4.85;;;14.00;91.40;;;;;;1906186;75;21071;-57
2022/09/24 00:20:02;;;;;;;4.90;4.25;;;14.00;91.40;;;;;;1906261;75;21082;-57
2022/09/24 00:22:33;;;;;;;4.40;4.00;;;14.00;91.40;;;;;;1906101;75;21036;-57
2022/09/24 00:27:49;;;;;;;4.42;4.03;;;14.20;91.40;;;;;;1906382;75;21051;-57
2022/09/24 00:30:18;;;;;;;4.78;4.28;;;14.10;91.30;;;;;;1906160;75;21103;-57
2022/09/24 00:32:48;;;;;;;4.37;3.98;;;14.20;91.40;;;;;;1912814;74;21077;-57
2022/09/24 00:35:17;;;;;;;6.70;4.87;;;14.20;91.40;;;;;;1935074;74;21027;-57
2022/09/24 00:37:47;;;;;;;7.92;4.40;;;14.20;91.40;;;;;;1935193;74;21110;-57
2022/09/24 00:40:17;;;;;;;6.92;5.28;;;14.20;91.20;;;;;;1935088;74;21077;-57
2022/09/24 00:42:46;;;;;;;5.60;4.33;;;14.20;91.10;;;;;;1935200;74;21096;-57
2022/09/24 00:45:15;;;;;;;7.62;4.30;;;14.10;91.00;;;;;;1935314;74;21027;-57
2022/09/24 00:47:44;;;;;;;6.47;4.58;;;14.10;91.20;;;;;;1935187;74;21438;-57
2022/09/24 00:50:31;;;;;;;4.47;4.00;;;14.10;91.30;;;;;;1935276;74;21103;-57
2022/09/24 00:53:09;;;;;;;6.15;4.55;;;14.00;91.30;;;;;;1935174;74;21023;-57
2022/09/24 00:55:42;;;;;;;8.80;5.15;;;14.00;91.20;;;;;;1928202;73;21050;-57
2022/09/24 00:58:13;;;;;;;7.20;5.03;;;14.00;91.30;;;;;;1935316;74;21022;-57
2022/09/24 01:00:43;;;;;;;7.00;4.83;;;13.90;91.40;;;;;;1935278;74;21132;-57
2022/09/24 01:03:15;;;;;;;6.87;4.35;;;14.00;91.50;;;;;;1935056;74;21162;-57
2022/09/24 01:05:44;;;;;;;4.37;3.98;;;13.90;91.30;;;;;;1933833;72;21496;-57
2022/09/24 01:08:15;;;;;;;4.97;4.30;;;13.90;91.20;;;;;;1935035;74;21080;-57
2022/09/24 01:10:59;;;;;;;6.78;5.72;;;13.80;91.20;;;;;;1934661;73;21046;-57
2022/09/24 01:13:51;;;;;;;7.28;4.58;;;13.70;91.20;;;;;;1934407;74;21018;-57
2022/09/24 01:16:38;;;;;;;5.65;4.78;;;13.60;91.30;;;;;;1935189;74;21042;-56
2022/09/24 01:19:45;;;;;;;7.20;4.70;;;13.50;91.70;;;;;;1934648;74;21054;-57
2022/09/24 01:22:33;;;;;;;4.97;4.42;;;13.60;91.70;;;;;;1935141;74;21066;-57
2022/09/24 01:25:11;;;;;;;6.58;4.60;;;13.70;91.70;;;;;;1934202;73;21132;-57
2022/09/24 01:27:51;;;;;;;5.53;4.53;;;13.80;91.80;;;;;;1935180;74;21054;-57
2022/09/24 01:30:20;;;;;;;5.35;4.78;;;13.90;91.80;;;;;;1933993;72;21054;-58
2022/09/24 01:32:57;;;;;;;7.33;4.80;;;13.90;91.80;;;;;;1935002;74;21031;-57
2022/09/24 01:35:38;;;;;;;5.62;4.20;;;13.90;91.80;;;;;;1935043;74;21010;-57
2022/09/24 01:38:13;;;;;;;6.00;4.65;;;13.90;91.70;;;;;;1935113;74;21019;-57
2022/09/24 01:40:44;;;;;;;5.50;4.83;;;13.90;91.70;;;;;;1933724;72;21109;-57
2022/09/24 01:43:16;;;;;;;7.03;4.92;;;13.80;91.80;;;;;;1935077;74;21015;-57
2022/09/24 01:45:45;;;;;;;8.20;4.50;;;13.90;92.00;;;;;;1935172;74;21030;-57
2022/09/24 01:48:19;;;;;;;5.95;4.33;;;13.80;91.70;;;;;;1935134;74;21031;-57
2022/09/24 01:50:51;;;;;;;9.05;4.37;;;13.70;91.50;;;;;;1934531;73;21002;-57
2022/09/24 01:53:26;;;;;;;6.10;5.00;;;13.60;91.60;;;;;;1934869;73;21059;-56
2022/09/24 01:55:58;;;;;;;5.53;4.85;;;13.40;91.60;;;;;;1935293;74;21046;-57
2022/09/24 01:58:32;;;;;;;7.37;4.42;;;13.40;92.00;;;;;;1935056;74;21485;-57
2022/09/24 02:01:04;;;;;;;5.33;3.67;;;13.40;92.00;;;;;;1935401;74;21054;-56
2022/09/24 02:03:40;;;;;;;5.30;4.28;;;13.30;92.00;;;;;;1935124;74;21094;-56
2022/09/24 02:06:10;;;;;;;5.70;3.83;;;13.30;92.00;;;;;;1935002;74;21022;-57
2022/09/24 02:08:45;;;;;;;4.67;4.05;;;13.40;92.10;;;;;;1935107;74;21088;-57
2022/09/24 02:11:24;;;;;;;6.35;4.80;;;13.40;92.10;;;;;;1935182;74;21022;-57
2022/09/24 02:14:04;;;;;;;5.92;4.78;;;13.40;92.10;;;;;;1935027;74;21104;-57
2022/09/24 02:16:32;;;;;;;5.62;4.95;;;13.50;92.20;;;;;;1933664;73;21157;-58
2022/09/24 02:19:04;;;;;;;7.33;4.70;;;13.50;92.30;;;;;;1935223;74;21472;-57
2022/09/24 02:21:34;;;;;;;7.00;4.40;;;13.60;92.30;;;;;;1935296;74;21629;-57
2022/09/24 02:24:09;;;;;;;7.97;5.30;;;13.70;92.20;;;;;;1935093;74;21043;-57
2022/09/24 02:26:38;;;;;;;5.90;4.95;;;13.70;92.00;;;;;;1935144;73;21556;-57
2022/09/24 02:29:07;;;;;;;5.67;4.78;;;13.70;92.00;;;;;;1935216;74;21105;-57
2022/09/24 02:31:40;;;;;;;5.33;4.83;;;13.70;92.20;;;;;;1935250;74;21046;-57
2022/09/24 02:34:21;;;;;;;5.20;4.65;;;13.70;92.20;;;;;;1935206;74;21528;-57
2022/09/24 02:36:57;;;;;;;4.67;4.17;;;13.70;92.20;;;;;;1935205;74;21054;-57
2022/09/24 02:39:26;;;;;;;4.70;3.98;;;13.70;92.10;;;;;;1935227;74;21018;-56
2022/09/24 02:41:57;;;;;;;5.78;3.75;;;13.70;91.70;;;;;;1935207;74;21011;-56
2022/09/24 02:44:26;;;;;;;3.35;2.60;;;13.70;91.70;;;;;;1935108;74;21031;-57
2022/09/24 02:46:56;;;;;;;4.20;3.40;;;13.60;91.70;;;;;;1935194;74;21092;-57
2022/09/24 02:49:25;;;;;;;4.87;4.00;;;13.40;91.60;;;;;;1935167;74;21100;-57
2022/09/24 02:51:55;;;;;;;6.03;3.85;;;13.30;91.70;;;;;;1934994;74;21015;-57
2022/09/24 02:54:25;;;;;;;9.03;4.75;;;13.20;91.80;;;;;;1935089;74;21125;-57
2022/09/24 02:56:54;;;;;;;5.42;3.87;;;13.10;92.00;;;;;;1934973;74;21080;-56
2022/09/24 02:59:24;;;;;;;7.10;3.90;;;12.90;92.10;;;;;;1934989;74;21027;-57
2022/09/24 03:01:53;;;;;;;6.05;3.90;;;12.90;92.20;;;;;;1934986;74;21034;-57
2022/09/24 03:04:22;;;;;;;7.20;3.95;;;12.90;92.30;;;;;;1934922;74;21088;-57
2022/09/24 03:06:52;;;;;;;6.35;2.92;;;12.90;92.40;;;;;;1935071;74;21050;-57
2022/09/24 03:09:21;;;;;;;4.92;3.33;;;12.80;92.40;;;;;;1935126;74;21031;-56
2022/09/24 03:11:51;;;;;;;5.87;3.55;;;12.80;92.50;;;;;;1935045;74;21022;-57
2022/09/24 03:14:20;;;;;;;4.65;3.52;;;12.80;92.60;;;;;;1935150;74;21031;-57
2022/09/24 03:16:49;;;;;;;4.50;4.03;;;12.80;92.50;;;;;;1934975;74;21050;-57
2022/09/24 03:19:19;;;;;;;7.03;4.40;;;12.80;92.50;;;;;;1935105;74;21003;-56
2022/09/24 03:21:48;;;;;;;7.97;4.65;;;12.80;92.70;;;;;;1935107;74;21527;-57
2022/09/24 03:24:17;;;;;;;6.22;4.87;;;12.90;92.50;;;;;;1935094;74;21089;-57
2022/09/24 03:26:47;;;;;;;7.60;5.30;;;12.90;92.50;;;;;;1934981;74;21478;-56
2022/09/24 03:30:58;;;;;;;7.12;5.20;;;12.90;92.50;;;;;;1935069;74;21027;-57
2022/09/24 03:31:47;;;;;;;10.32;5.78;;;13.00;92.70;;;;;;1930467;74;21108;-57
2022/09/24 03:34:17;;;;;;;9.23;5.42;;;13.10;92.60;;;;;;1931060;74;21003;-56
2022/09/24 03:36:46;;;;;;;6.80;5.25;;;13.10;92.50;;;;;;1906304;74;21113;-57
2022/09/24 03:39:15;;;;;;;7.58;5.30;;;13.10;92.50;;;;;;1906343;75;21125;-57
2022/09/24 03:41:45;;;;;;;6.22;4.22;;;13.10;92.40;;;;;;1906147;75;21109;-57
2022/09/24 03:44:14;;;;;;;8.98;6.28;;;13.10;92.50;;;;;;1906180;75;21027;-56
2022/09/24 03:46:44;;;;;;;7.80;4.85;;;13.10;92.40;;;;;;1906161;75;21059;-56
2022/09/24 03:49:13;;;;;;;4.72;3.70;;;13.10;92.40;;;;;;1906321;75;21152;-57
2022/09/24 03:51:42;;;;;;;6.35;3.95;;;13.10;92.50;;;;;;1906156;75;21008;-57
2022/09/24 03:54:12;;;;;;;4.97;3.90;;;13.10;92.60;;;;;;1906156;75;21012;-57
2022/09/24 03:56:41;;;;;;;6.00;4.05;;;13.00;92.80;;;;;;1906204;75;21016;-57
2022/09/24 03:59:13;;;;;;;6.35;3.85;;;13.00;92.80;;;;;;1906207;75;21064;-57
2022/09/24 04:01:43;;;;;;;5.97;4.17;;;13.00;93.20;;;;;;1906266;75;21051;-57
2022/09/24 04:04:15;;;;;;;9.20;4.58;;;12.90;92.80;;;;;;1906158;75;21051;-56
2022/09/24 04:06:43;;;;;;;4.70;3.95;;;12.90;93.10;;;;;;1906281;74;21059;-56
2022/09/24 04:09:12;;;;;;;6.55;5.40;;;12.90;93.20;;;;;;1906340;75;21089;-56
2022/09/24 04:11:43;;;;;;;7.80;5.22;;;12.80;93.00;;;;;;1906327;75;21092;-56
2022/09/24 04:14:13;;;;;;;5.83;3.92;;;12.80;93.20;;;;;;1906342;75;21298;-56
2022/09/24 04:16:42;;;;;;;3.95;3.55;;;12.80;93.20;;;;;;1906447;75;21111;-56
2022/09/24 04:19:11;;;;;;;4.97;3.00;;;12.80;93.10;;;;;;1906297;75;21008;-56
2022/09/24 04:21:41;;;;;;;3.90;3.50;;;12.80;93.00;;;;;;1906270;75;21082;-56
2022/09/24 04:24:10;;;;;;;3.10;2.80;;;12.80;93.10;;;;;;1906515;75;20992;-56
2022/09/24 04:26:39;;;;;;;5.90;3.72;;;12.70;93.10;;;;;;1906288;75;21023;-56
2022/09/24 04:29:09;;;;;;;4.15;3.37;;;12.70;93.10;;;;;;1906319;75;21052;-56
2022/09/24 04:31:39;;;;;;;4.92;3.75;;;12.80;93.10;;;;;;1906366;75;21105;-56
2022/09/24 04:34:09;;;;;;;4.00;3.50;;;12.80;93.20;;;;;;1906427;75;21094;-56
2022/09/24 04:36:38;;;;;;;5.70;3.52;;;12.90;93.10;;;;;;1906387;74;21105;-56
2022/09/24 04:39:08;;;;;;;4.78;3.33;;;12.90;93.10;;;;;;1906306;75;21052;-56
2022/09/24 04:41:39;;;;;;;4.95;3.47;;;13.00;93.10;;;;;;1906385;75;21079;-56
2022/09/24 04:44:09;;;;;;;4.42;3.80;;;13.10;93.10;;;;;;1906466;75;21008;-56
2022/09/24 04:46:39;;;;;;;5.05;4.25;;;13.10;93.00;;;;;;1906392;75;21036;-56
2022/09/24 04:49:09;;;;;;;23.05;14.35;;;13.10;93.10;;;;;;1906355;75;21024;-56
2022/09/24 04:51:38;;;;;;;27.00;16.35;;;13.20;93.10;;;;;;1906299;75;20992;-56
2022/09/24 04:54:08;;;;;;;6.58;5.65;;;13.20;93.00;;;;;;1906393;75;21098;-56
2022/09/24 04:56:37;;;;;;;6.03;4.67;;;13.30;93.00;;;;;;1906314;75;21086;-56
2022/09/24 04:59:06;;;;;;;5.17;4.08;;;13.30;93.00;;;;;;1906283;75;21039;-56
2022/09/24 05:01:36;;;;;;;7.55;4.00;;;13.30;93.10;;;;;;1906207;75;21572;-56
2022/09/24 05:04:10;;;;;;;5.12;3.85;;;13.40;93.10;;;;;;1906284;75;21059;-56
2022/09/24 05:06:35;;;;;;;5.20;4.05;;;13.60;93.20;;;;;;1905590;75;20996;-56
2022/09/24 05:09:05;;;;;;;4.42;3.58;;;13.70;93.20;;;;;;1906224;75;21050;-56
2022/09/24 05:11:34;;;;;;;6.35;4.47;;;13.70;93.10;;;;;;1906429;75;21090;-56
2022/09/24 05:14:04;;;;;;;7.08;4.25;;;13.80;93.00;;;;;;1906184;75;21055;-56
2022/09/24 05:16:34;;;;;;;7.35;4.50;;;13.80;93.00;;;;;;1906189;75;21063;-56
2022/09/24 05:19:03;;;;;;;4.95;3.95;;;13.80;93.00;;;;;;1906241;75;21141;-56
2022/09/24 05:21:33;;;;;;;4.00;3.62;;;13.90;93.00;;;;;;1905900;75;21020;-56
2022/09/24 05:24:02;;;;;;;4.72;3.98;;;13.90;93.00;;;;;;1906036;75;21188;-56
2022/09/24 05:29:19;;;;;;;4.60;3.40;;;14.00;92.90;;;;;;1906362;74;21037;-57
2022/09/24 05:31:48;;;;;;;3.92;3.52;;;14.00;93.00;;;;;;1906215;75;21020;-57
2022/09/24 05:34:18;;;;;;;3.55;3.20;;;14.00;93.00;;;;;;1906331;75;21086;-57
2022/09/24 05:36:48;;;;;;;3.85;2.95;;;14.00;93.00;;;;;;1918791;74;21477;-57
2022/09/24 05:39:17;;;;;;;4.00;3.58;;;14.10;93.00;;;;;;1935093;74;21010;-57
2022/09/24 05:41:47;;;;;;;4.20;3.80;;;14.10;93.00;;;;;;1935058;74;21022;-57
2022/09/24 05:44:20;;;;;;;3.52;2.92;;;14.20;92.90;;;;;;1935151;74;21088;-57
2022/09/24 05:46:47;;;;;;;4.65;3.27;;;14.20;92.80;;;;;;1934721;74;21161;-57
2022/09/24 05:49:17;;;;;;;4.50;3.37;;;14.20;92.90;;;;;;1935034;74;21022;-57
2022/09/24 05:51:48;;;;;;;3.30;2.98;;;14.30;92.90;;;;;;1935034;74;21379;-57
2022/09/24 05:54:18;;;;;;;3.92;3.17;;;14.40;92.90;;;;;;1935150;74;21081;-57
2022/09/24 05:56:48;;;;;;;4.50;3.00;;;14.40;92.80;;;;;;1934907;74;21031;-57
2022/09/24 05:59:17;;;;;;;5.00;3.65;;;14.50;92.70;;;;;;1935226;74;21011;-57
2022/09/24 06:01:47;;;;;;;4.30;3.77;;;14.50;92.50;;;;;;1934951;74;21030;-57
2022/09/24 06:04:17;;;;;;;5.10;3.50;;;14.50;92.50;;;;;;1934893;74;21026;-57
2022/09/24 06:06:46;;;;;;;4.45;3.35;;;14.60;92.60;;;;;;1935076;74;21112;-57
2022/09/24 06:09:16;;;;;;;3.50;2.95;;;14.60;92.50;;;;;;1935094;74;21050;-57
2022/09/24 06:11:47;;;;;;;2.80;2.60;;;14.60;92.50;;;;;;1934941;74;21080;-57
2022/09/24 06:14:16;;;;;;;3.87;2.80;;;14.70;92.20;;;;;;1935091;74;21066;-57
2022/09/24 06:16:46;;;;;;;3.25;2.92;;;14.60;92.10;;;;;;1934952;74;21328;-57
2022/09/24 06:19:15;;;;;;;4.72;2.85;;;14.60;92.30;;;;;;1935012;74;21089;-57
2022/09/24 06:21:44;;;;;;;3.42;3.15;;;14.70;92.40;;;;;;1934947;74;21006;-57
2022/09/24 06:24:14;;;;;;;3.67;3.30;;;14.70;92.40;;;;;;1935052;74;21159;-57
2022/09/24 06:26:43;;;;;;;3.92;3.33;;;14.70;92.30;;;;;;1935202;74;21128;-57
2022/09/24 06:29:13;;;;;;;4.53;3.40;;;14.80;92.30;;;;;;1935028;74;21088;-57
2022/09/24 06:31:44;;;;;;;3.62;3.15;;;14.80;92.20;;;;;;1935079;74;21042;-57
2022/09/24 06:34:14;;;;;;;3.40;3.10;;;14.80;92.20;;;;;;1935023;74;21167;-57
2022/09/24 06:36:44;;;;;;;3.35;3.05;;;14.90;92.20;;;;;;1930677;74;21060;-58
2022/09/24 06:39:13;;;;;;;4.35;3.05;;;15.00;92.30;;;;;;1906226;75;21329;-57
2022/09/24 06:41:42;;;;;;;10.85;10.15;;;15.00;91.60;;;;;;1906272;75;21036;-57
2022/09/24 06:44:13;;;;;;;24.07;15.72;;;15.00;91.70;;;;;;1906015;75;21144;-57
2022/09/24 06:46:43;;;;;;;6.83;5.05;;;15.00;91.60;;;;;;1906262;75;21090;-57
2022/09/24 06:49:12;;;;;;;5.70;3.98;;;14.90;91.60;;;;;;1906244;75;21043;-57
2022/09/24 06:51:42;;;;;;;3.50;3.20;;;15.00;91.70;;;;;;1906192;75;21113;-57
2022/09/24 06:54:11;;;;;;;4.25;3.62;;;15.00;91.60;;;;;;1906190;75;21023;-57
2022/09/24 06:56:40;;;;;;;5.12;3.60;;;15.00;91.50;;;;;;1906194;75;21004;-57
2022/09/24 06:59:09;;;;;;;5.30;2.90;;;15.00;91.70;;;;;;1906332;75;21485;-57
2022/09/24 07:01:39;;;;;;;3.22;2.92;;;15.00;91.70;;;;;;1906108;75;21086;-57
2022/09/24 07:04:08;;;;;;;4.08;3.00;;;15.10;91.70;;;;;;1906156;75;21035;-57
2022/09/24 07:09:24;;;;;;;4.33;3.20;;;15.20;91.60;;;;;;1906262;75;21106;-57
2022/09/24 07:11:55;;;;;;;5.05;2.95;;;15.30;91.60;;;;;;1906129;75;21050;-57
2022/09/24 07:14:25;;;;;;;3.27;2.98;;;15.30;91.40;;;;;;1906232;75;21130;-57
2022/09/24 07:16:54;;;;;;;3.15;2.85;;;15.30;91.40;;;;;;1906224;75;21023;-57
2022/09/24 07:19:23;;;;;;;4.37;3.25;;;15.40;91.40;;;;;;1906190;75;21169;-57
2022/09/24 07:21:52;;;;;;;2.67;2.47;;;15.40;91.40;;;;;;1906147;75;21540;-57
2022/09/24 07:24:22;;;;;;;3.05;2.70;;;15.40;91.30;;;;;;1906132;75;21024;-57
2022/09/24 07:26:51;;;;;;;4.42;3.20;;;15.50;91.30;;;;;;1906281;75;21085;-57
2022/09/24 07:29:20;;;;;;;3.60;2.77;;;15.40;91.20;;;;;;1906264;75;21027;-57
2022/09/24 07:31:50;;;;;;;4.53;4.12;;;15.50;91.30;;;;;;1906225;74;21148;-57
2022/09/24 07:34:19;;;;;;;6.30;3.02;;;15.50;91.30;;;;;;1906177;75;21028;-57
2022/09/24 07:36:49;;;;;;;3.33;3.02;;;15.50;91.50;;;;;;1906141;75;21008;-57
2022/09/24 07:39:19;;;;;;;4.58;2.83;;;15.60;91.40;;;;;;1905963;74;21060;-58
2022/09/24 07:41:48;;;;;;;4.33;2.75;;;15.70;91.30;;;;;;1906209;75;21028;-57
2022/09/24 07:44:26;;;;;;;3.52;2.35;;;15.70;91.10;;;;;;1906293;75;21039;-57
2022/09/24 07:46:51;;;;;;;;;;;15.80;90.80;;;;;;1908163;74;21059;-57
2022/09/24 07:49:21;;;;;;;2.87;1.90;;;15.90;90.60;;;;;;1906226;75;20099;-57
2022/09/24 07:51:51;;;;;;;3.77;2.30;;;15.90;90.70;;;;;;1906248;75;21019;-57
2022/09/24 07:54:20;;;;;;;2.80;2.33;;;16.00;90.70;;;;;;1906266;75;21028;-57
2022/09/24 07:56:49;;;;;;;2.67;2.20;;;16.10;90.40;;;;;;1906177;75;21020;-57
2022/09/24 07:59:19;;;;;;;7.17;3.40;;;16.10;90.40;;;;;;1906212;75;21090;-57
2022/09/24 08:01:48;;;;;;;4.12;2.10;;;16.10;90.10;;;;;;1906159;75;21098;-57
2022/09/24 08:04:17;;;;;;;4.42;2.42;;;16.20;90.10;;;;;;1906260;75;20999;-57
2022/09/24 08:06:47;;;;;;;5.47;3.72;;;16.20;90.10;;;;;;1906183;75;21009;-57
2022/09/24 08:09:17;;;;;;;2.10;1.70;;;16.30;90.10;;;;;;1906287;75;21048;-57
2022/09/24 08:11:46;;;;;;;6.28;2.27;;;16.30;87.70;;;;;;1906308;75;21098;-58
2022/09/24 08:14:15;;;;;;;2.62;1.67;;;16.30;87.80;;;;;;1906313;75;21055;-57
2022/09/24 08:16:45;;;;;;;3.17;1.17;;;16.30;87.00;;;;;;1906264;75;21082;-58
2022/09/24 08:19:15;;;;;;;2.55;1.60;;;16.30;85.90;;;;;;1906570;75;21039;-57
2022/09/24 08:21:45;;;;;;;3.40;1.30;;;16.30;85.10;;;;;;1906261;75;21078;-57
2022/09/24 08:24:14;;;;;;;2.05;1.47;;;16.20;86.50;;;;;;1906327;75;21443;-57
2022/09/24 08:26:44;;;;;;;1.52;1.40;;;16.30;86.10;;;;;;1906267;75;21028;-57
2022/09/24 08:29:13;;;;;;;3.70;1.52;;;16.30;86.00;;;;;;1906162;75;21097;-57
2022/09/24 08:31:42;;;;;;;2.02;1.72;;;16.40;85.80;;;;;;1906242;75;21048;-57
2022/09/24 08:34:12;;;;;;;5.70;2.02;;;16.50;86.50;;;;;;1906051;75;21135;-57
2022/09/24 08:36:41;;;;;;;2.17;1.20;;;16.60;86.30;;;;;;1906185;75;21074;-58
2022/09/24 08:39:12;;;;;;;1.72;1.20;;;16.60;84.30;;;;;;1906779;73;21067;-58
2022/09/24 08:41:56;;;;;;;2.60;1.70;;;16.60;83.80;;;;;;1906814;74;21035;-58
2022/09/24 08:47:52;;;;;;;2.50;1.22;;;16.70;83.20;;;;;;1906886;74;21304;-57
2022/09/24 08:50:27;;;;;;;1.90;1.30;;;16.80;82.70;;;;;;1906138;74;21050;-57
2022/09/24 08:53:22;;;;;;;2.58;1.40;;;16.80;81.40;;;;;;1906834;75;21140;-57
2022/09/24 08:55:59;;;;;;;1.57;1.20;;;16.90;81.40;;;;;;1906706;74;21004;-57
2022/09/24 08:58:46;;;;;;;2.40;1.50;;;17.00;81.80;;;;;;1906981;74;21024;-57
2022/09/24 09:01:29;;;;;;;2.10;1.52;;;17.20;81.60;;;;;;1905721;75;21157;-57
2022/09/24 09:04:05;;;;;;;1.85;1.20;;;17.30;79.40;;;;;;1906862;75;21102;-57
2022/09/24 09:06:52;;;;;;;4.33;1.60;;;17.30;80.00;;;;;;1904144;75;21027;-57
2022/09/24 09:09:26;;;;;;;1.90;1.37;;;17.30;80.40;;;;;;1906972;74;21008;-57
2022/09/24 09:12:04;;;;;;;2.00;1.37;;;17.30;80.20;;;;;;1907173;75;21067;-57
2022/09/24 09:14:44;;;;;;;2.52;1.12;;;17.30;79.00;;;;;;1905679;75;21462;-57
2022/09/24 09:17:25;;;;;;;2.30;1.60;;;17.30;78.80;;;;;;1907007;75;21109;-57
2022/09/24 09:19:57;;;;;;;2.60;1.60;;;17.20;79.10;;;;;;1907101;75;21537;-57
2022/09/24 09:22:29;;;;;;;3.67;1.40;;;17.20;79.20;;;;;;1907053;75;21125;-56
2022/09/24 09:25:01;;;;;;;1.57;1.30;;;17.10;79.50;;;;;;1907010;75;21043;-56
2022/09/24 09:27:30;;;;;;;2.50;1.40;;;17.10;79.70;;;;;;1906876;74;21031;-56
2022/09/24 09:30:02;;;;;;;4.95;2.27;;;17.00;79.30;;;;;;1906865;74;21019;-56
2022/09/24 09:32:54;;;;;;;5.90;2.42;;;16.90;80.00;;;;;;1906954;75;21048;-56
2022/09/24 09:35:47;;;;;;;2.15;1.60;;;16.90;80.40;;;;;;1906927;74;21055;-56
2022/09/24 09:38:44;;;;;;;4.65;1.25;;;16.90;80.50;;;;;;1906780;74;21011;-56
2022/09/24 09:41:19;;;;;;;4.58;1.35;;;16.90;79.80;;;;;;1870000;76;21111;-58
2022/09/24 09:43:48;;;;;;;3.12;1.55;;;16.90;80.20;;;;;;1896242;75;21048;-57
2022/09/24 09:46:26;;;;;;;4.83;2.35;;;16.80;80.40;;;;;;1906288;75;21039;-57
2022/09/24 09:49:01;;;;;;;6.65;1.67;;;16.80;80.30;;;;;;1905029;73;21141;-57
2022/09/24 09:51:33;;;;;;;;;;;16.70;80.00;;;;;;1909242;75;21020;-57
2022/09/24 09:54:03;;;;;;;2.72;1.40;;;16.70;80.00;;;;;;1906213;75;20103;-56
2022/09/24 09:56:35;;;;;;;3.30;1.67;;;16.70;80.40;;;;;;1906539;75;21004;-56
2022/09/24 09:59:20;;;;;;;5.85;2.10;;;16.70;80.40;;;;;;1906254;75;21097;-56
2022/09/24 10:01:56;;;;;;;4.20;1.23;;;16.60;80.50;;;;;;1906451;74;21000;-57
2022/09/24 10:04:33;;;;;;;3.37;1.45;;;16.60;80.90;;;;;;1905500;75;21004;-57
2022/09/24 10:07:10;;;;;;;4.10;1.60;;;16.70;81.10;;;;;;1905896;75;21505;-57
2022/09/24 10:09:41;;;;;;;2.50;1.30;;;16.90;81.30;;;;;;1906297;75;21024;-56
2022/09/24 10:12:23;;;;;;;2.12;1.17;;;17.00;81.10;;;;;;1906320;75;21101;-57
2022/09/24 10:15:00;;;;;;;1.37;1.22;;;17.20;80.80;;;;;;1906380;75;21173;-57
2022/09/24 10:17:36;;;;;;;2.37;1.40;;;17.30;80.80;;;;;;1905997;75;21462;-58
2022/09/24 10:20:20;;;;;;;1.65;1.42;;;17.40;79.80;;;;;;1906217;75;21144;-57
2022/09/24 10:22:58;;;;;;;4.45;1.57;;;17.50;79.80;;;;;;1906292;75;21442;-57
2022/09/24 10:25:29;;;;;;;1.62;1.20;;;17.60;79.60;;;;;;1906250;75;21057;-57
2022/09/24 10:30:56;;;;;;;1.62;1.25;;;17.80;79.60;;;;;;1906185;75;21047;-57
2022/09/24 10:33:25;;;;;;;1.70;1.20;;;18.00;79.30;;;;;;1906337;75;21063;-57
2022/09/24 10:36:06;;;;;;;2.83;1.30;;;18.10;78.80;;;;;;1906268;75;21427;-57
2022/09/24 10:38:35;;;;;;;0.98;0.85;;;18.10;78.20;;;;;;1906459;74;21051;-56
2022/09/24 10:41:30;;;;;;;2.33;1.30;;;18.20;78.30;;;;;;1935002;74;21003;-57
2022/09/24 10:43:59;;;;;;;4.70;1.80;;;18.20;76.70;;;;;;1934427;74;21066;-56
2022/09/24 10:46:30;;;;;;;1.27;1.00;;;18.30;77.40;;;;;;1934953;74;21445;-57
2022/09/24 10:49:08;;;;;;;2.37;1.60;;;18.30;76.50;;;;;;1933599;74;21493;-56
2022/09/24 10:51:43;;;;;;;2.45;1.40;;;18.40;76.10;;;;;;1934932;74;21104;-56
2022/09/24 10:54:43;;;;;;;3.87;1.87;;;18.30;75.70;;;;;;1933543;74;21058;-56
2022/09/24 10:57:36;;;;;;;4.50;1.72;;;18.20;75.90;;;;;;1934902;74;21120;-56
2022/09/24 11:00:16;;;;;;;2.85;1.35;;;18.20;75.00;;;;;;1935083;74;21038;-57
2022/09/24 11:02:53;;;;;;;3.90;1.55;;;18.20;73.30;;;;;;1914265;74;21093;-57
2022/09/24 11:05:23;;;;;;;1.70;1.47;;;18.30;71.50;;;;;;1934988;74;21046;-56
2022/09/24 11:08:16;;;;;;;1.10;1.00;;;18.40;70.00;;;;;;1935115;74;21006;-57
2022/09/24 11:10:51;;;;;;;4.70;2.00;;;18.50;70.20;;;;;;1934910;74;21104;-56
2022/09/24 11:13:29;;;;;;;1.80;1.40;;;18.60;69.70;;;;;;1934190;74;21026;-56
2022/09/24 11:16:09;;;;;;;2.52;2.00;;;18.70;69.00;;;;;;1934981;74;21556;-57
2022/09/24 11:18:45;;;;;;;1.52;1.07;;;18.70;68.30;;;;;;1934410;74;21050;-57
2022/09/24 11:21:29;;;;;;;1.45;1.02;;;18.70;67.30;;;;;;1935082;74;21124;-57
2022/09/24 11:24:01;;;;;;;2.22;1.10;;;18.60;66.20;;;;;;1935053;74;21019;-57
2022/09/24 11:26:45;;;;;;;3.92;1.25;;;18.40;65.70;;;;;;1934146;73;21006;-56
2022/09/24 11:29:49;;;;;;;2.95;1.75;;;18.40;64.20;;;;;;1934071;74;21496;-57
2022/09/24 11:32:39;;;;;;;2.87;1.27;;;18.50;65.30;;;;;;1935021;74;21039;-57
2022/09/24 11:35:34;;;;;;;1.22;1.10;;;18.60;65.70;;;;;;1933403;74;21027;-57
2022/09/24 11:38:08;;;;;;;1.17;1.07;;;18.60;65.20;;;;;;1933025;74;21050;-57
2022/09/24 11:40:46;;;;;;;3.90;1.75;;;18.70;64.80;;;;;;1935201;74;21031;-57
2022/09/24 11:43:34;;;;;;;2.40;1.57;;;18.70;63.90;;;;;;1935107;74;21164;-57
2022/09/24 11:46:24;;;;;;;2.00;1.10;;;18.60;62.30;;;;;;1932881;74;21058;-56
2022/09/24 11:49:12;;;;;;;2.20;1.10;;;18.50;62.80;;;;;;1935141;74;21010;-57
2022/09/24 11:51:47;;;;;;;1.27;0.93;;;18.50;62.00;;;;;;1935148;74;21104;-57
2022/09/24 11:54:32;;;;;;;;;;;18.40;62.50;;;;;;1937853;74;21144;-57
2022/09/24 11:57:05;;;;;;;1.05;0.90;;;18.30;61.80;;;;;;1935357;74;20399;-57
2022/09/24 11:59:56;;;;;;;1.10;0.80;;;18.20;63.00;;;;;;1935037;74;21093;-57
2022/09/24 12:02:34;;;;;;;2.45;0.93;;;18.20;63.00;;;;;;1934867;74;21344;-57
2022/09/24 12:05:28;;;;;;;1.95;1.30;;;18.20;63.50;;;;;;1934929;74;21531;-57
2022/09/24 12:08:07;;;;;;;2.23;0.80;;;18.20;63.80;;;;;;1935217;74;21015;-57
2022/09/24 12:10:45;;;;;;;1.45;0.80;;;18.20;62.70;;;;;;1934634;73;21050;-57
2022/09/24 12:13:18;;;;;;;2.25;1.02;;;18.30;62.30;;;;;;1934995;74;21477;-57
2022/09/24 12:15:56;;;;;;;2.65;1.05;;;18.20;61.90;;;;;;1934550;74;21088;-57
2022/09/24 12:18:37;;;;;;;2.90;1.05;;;18.20;61.50;;;;;;1934893;74;21022;-57
2022/09/24 12:21:14;;;;;;;0.82;0.75;;;18.10;62.20;;;;;;1934210;74;21124;-57
2022/09/24 12:23:47;;;;;;;1.20;1.10;;;18.10;61.30;;;;;;1934691;74;21100;-56
2022/09/24 12:26:18;;;;;;;1.37;1.20;;;18.10;61.50;;;;;;1934904;74;21066;-57
2022/09/24 12:34:59;;;;;;;1.50;0.90;;;18.00;61.20;;;;;;1935066;74;21154;-57
2022/09/24 12:37:31;;;;;;;4.28;1.55;;;17.90;61.60;;;;;;1932296;74;21493;-57
2022/09/24 12:40:23;;;;;;;2.92;1.37;;;17.80;62.20;;;;;;1929672;74;21137;-57
2022/09/24 12:42:55;;;;;;;2.27;1.50;;;17.80;63.00;;;;;;1906833;75;21121;-57
2022/09/24 12:45:25;;;;;;;4.67;1.60;;;17.70;63.50;;;;;;1906821;75;21101;-57
2022/09/24 12:47:58;;;;;;;1.98;1.15;;;17.70;64.00;;;;;;1906904;74;20995;-57
2022/09/24 12:50:30;;;;;;;1.25;1.00;;;17.60;65.20;;;;;;1907040;75;21039;-58
2022/09/24 12:53:00;;;;;;;2.02;1.30;;;17.60;66.40;;;;;;1907024;74;21536;-57
2022/09/24 12:55:32;;;;;;;4.35;1.55;;;17.60;66.90;;;;;;1906893;74;21027;-57
2022/09/24 12:58:06;;;;;;;3.25;1.75;;;17.50;69.20;;;;;;1905728;74;21129;-57
2022/09/24 13:00:41;;;;;;;2.58;1.42;;;17.40;69.90;;;;;;1907093;75;21160;-57
2022/09/24 13:03:37;;;;;;;1.85;1.20;;;17.30;71.10;;;;;;1906896;74;21091;-57
2022/09/24 13:06:05;;;;;;;2.55;1.20;;;17.10;72.00;;;;;;1905303;74;21027;-57
2022/09/24 13:08:40;;;;;;;1.87;1.55;;;17.00;73.30;;;;;;1903783;74;21055;-56
2022/09/24 13:11:37;;;;;;;1.30;1.10;;;16.80;74.40;;;;;;1906864;75;21009;-56
2022/09/24 13:14:15;;;;;;;1.45;1.10;;;16.70;74.90;;;;;;1906919;74;21062;-57
2022/09/24 13:16:48;;;;;;;3.80;2.17;;;16.40;75.10;;;;;;1907001;74;21068;-57
2022/09/24 13:19:32;;;;;;;3.72;2.00;;;16.30;76.00;;;;;;1906742;74;21039;-57
2022/09/24 13:22:02;;;;;;;3.47;1.55;;;16.10;76.70;;;;;;1902340;74;20999;-57
2022/09/24 13:24:46;;;;;;;3.35;1.37;;;16.00;77.00;;;;;;1906749;75;21019;-57
2022/09/24 13:27:27;;;;;;;2.40;1.55;;;16.00;77.80;;;;;;1906878;75;21027;-57
2022/09/24 13:30:27;;;;;;;2.60;1.15;;;15.90;78.00;;;;;;1902684;75;21541;-57
2022/09/24 13:33:20;;;;;;;1.22;1.05;;;15.90;78.00;;;;;;1906255;75;21070;-58
2022/09/24 13:36:07;;;;;;;2.02;0.90;;;15.80;77.60;;;;;;1906938;74;21124;-58
2022/09/24 13:38:39;;;;;;;1.90;1.00;;;15.80;76.70;;;;;;1905892;74;21099;-57
2022/09/24 13:41:26;;;;;;;1.82;1.00;;;15.70;76.80;;;;;;1906493;73;21153;-57